createdAt,value
2022-10-11T00:02:46.650Z,8.65
2022-10-11T00:05:49.987Z,8.69
2022-10-11T00:08:52.479Z,8.72
2022-10-11T00:11:56.352Z,8.73
2022-10-11T00:14:59.018Z,8.75
2022-10-11T00:18:05.266Z,8.81
2022-10-11T00:21:16.197Z,8.82
2022-10-11T00:24:19.209Z,8.81
2022-10-11T00:27:21.680Z,8.65
2022-10-11T00:30:26.516Z,8.76
2022-10-11T00:33:29.157Z,8.54
2022-10-11T00:36:32.288Z,8.70
2022-10-11T00:39:34.819Z,8.72
2022-10-11T00:42:37.646Z,8.76
2022-10-11T00:45:40.087Z,8.78
2022-10-11T00:48:46.992Z,8.78
2022-10-11T00:51:56.401Z,8.76
2022-10-11T00:55:02.774Z,8.79
2022-10-11T00:58:06.525Z,8.78
2022-10-11T01:01:09.594Z,8.78
2022-10-11T01:04:12.450Z,8.81
2022-10-11T01:07:16.545Z,8.81
2022-10-11T01:10:19.172Z,8.81
2022-10-11T01:13:40.911Z,8.84
2022-10-11T01:16:58.400Z,8.88
2022-10-11T01:20:26.495Z,8.89
2022-10-11T01:23:51.585Z,8.89
2022-10-11T01:27:14.590Z,8.90
2022-10-11T01:30:32.204Z,8.84
2022-10-11T01:33:41.981Z,8.91
2022-10-11T01:36:52.233Z,8.82
2022-10-11T01:40:00.926Z,8.80
2022-10-11T01:43:04.179Z,8.93
2022-10-11T01:46:08.891Z,8.94
2022-10-11T01:49:11.872Z,8.97
2022-10-11T01:52:14.787Z,8.96
2022-10-11T01:55:30.035Z,8.82
2022-10-11T01:58:54.685Z,8.90
2022-10-11T02:02:13.117Z,8.81
2022-10-11T02:05:50.849Z,8.83
2022-10-11T02:09:07.163Z,8.86
2022-10-11T02:12:13.101Z,8.83
2022-10-11T02:15:16.510Z,8.82
2022-10-11T02:18:23.276Z,8.83
2022-10-11T02:21:26.425Z,8.84
2022-10-11T02:24:32.283Z,8.85
2022-10-11T02:27:37.380Z,8.88
2022-10-11T02:30:41.851Z,8.91
2022-10-11T02:33:50.495Z,8.96
2022-10-11T02:37:00.622Z,9.02
2022-10-11T02:40:23.378Z,9.06
2022-10-11T02:43:49.790Z,9.06
2022-10-11T02:46:52.544Z,9.05
2022-10-11T02:49:55.513Z,9.03
2022-10-11T02:52:58.253Z,8.88
2022-10-11T02:56:01.170Z,9.02
2022-10-11T02:59:03.883Z,9.05
2022-10-11T03:02:06.875Z,9.10
2022-10-11T03:05:09.882Z,9.10
2022-10-11T03:08:14.714Z,9.12
2022-10-11T03:11:17.523Z,9.14
2022-10-11T03:14:20.372Z,9.14
2022-10-11T03:17:38.010Z,9.05
2022-10-11T03:20:40.893Z,9.15
2022-10-11T03:23:43.512Z,9.19
2022-10-11T03:26:46.408Z,9.21
2022-10-11T03:29:49.148Z,9.20
2022-10-11T03:32:52.027Z,9.23
2022-10-11T03:35:54.578Z,9.25
2022-10-11T03:38:57.819Z,9.22
2022-10-11T03:42:00.592Z,9.29
2022-10-11T03:45:08.464Z,9.32
2022-10-11T03:48:11.121Z,9.33
2022-10-11T03:51:15.381Z,9.32
2022-10-11T03:54:17.925Z,9.32
2022-10-11T03:57:20.803Z,9.31
2022-10-11T04:00:23.334Z,9.31
2022-10-11T04:03:26.425Z,9.19
2022-10-11T04:06:29.013Z,9.34
2022-10-11T04:09:32.282Z,9.39
2022-10-11T04:12:34.937Z,9.45
2022-10-11T04:15:38.387Z,9.50
2022-10-11T04:18:42.146Z,9.57
2022-10-11T04:21:45.021Z,9.60
2022-10-11T04:24:47.991Z,9.64
2022-10-11T04:27:51.045Z,9.55
2022-10-11T04:30:53.525Z,9.73
2022-10-11T04:33:57.245Z,9.71
2022-10-11T04:36:59.833Z,9.77
2022-10-11T04:40:03.008Z,9.82
2022-10-11T04:43:05.802Z,9.86
2022-10-11T04:46:09.925Z,9.88
2022-10-11T04:49:14.982Z,9.94
2022-10-11T04:52:21.065Z,9.99
2022-10-11T04:55:25.998Z,9.91
2022-10-11T04:58:30.195Z,10.05
2022-10-11T05:01:32.834Z,10.09
2022-10-11T05:04:35.963Z,10.07
2022-10-11T05:07:38.825Z,10.08
2022-10-11T05:10:41.709Z,10.01
2022-10-11T05:13:46.290Z,10.15
2022-10-11T05:16:49.349Z,10.16
2022-10-11T05:19:52.969Z,10.18
2022-10-11T05:22:55.823Z,10.20
2022-10-11T05:25:58.779Z,10.22
2022-10-11T05:29:01.758Z,10.12
2022-10-11T05:32:04.637Z,10.17
2022-10-11T05:35:07.971Z,10.18
2022-10-11T05:38:10.824Z,10.23
2022-10-11T05:41:15.098Z,10.20
2022-10-11T05:44:17.797Z,10.33
2022-10-11T05:47:20.782Z,10.35
2022-10-11T05:50:24.589Z,10.38
2022-10-11T05:53:27.563Z,10.31
2022-10-11T05:56:30.412Z,10.43
2022-10-11T05:59:35.397Z,10.42
2022-10-11T06:02:38.292Z,10.39
2022-10-11T06:05:42.001Z,10.27
2022-10-11T06:08:45.259Z,10.45
2022-10-11T06:11:48.288Z,10.48
2022-10-11T06:14:51.152Z,10.55
2022-10-11T06:17:54.569Z,10.58
2022-10-11T06:20:58.567Z,10.64
2022-10-11T06:24:02.888Z,10.81
2022-10-11T06:27:05.424Z,10.87
2022-10-11T06:30:09.627Z,11.11
2022-10-11T06:33:12.964Z,11.18
2022-10-11T06:36:17.103Z,11.48
2022-10-11T06:39:19.634Z,11.55
2022-10-11T06:42:22.514Z,11.63
2022-10-11T06:45:25.094Z,11.72
2022-10-11T06:48:28.071Z,11.74
2022-10-11T06:51:31.220Z,11.80
2022-10-11T06:54:34.217Z,11.80
2022-10-11T06:57:37.058Z,11.73
2022-10-11T07:00:40.249Z,11.90
2022-10-11T07:03:42.979Z,11.93
2022-10-11T07:06:45.889Z,11.99
2022-10-11T07:09:48.482Z,12.05
2022-10-11T07:12:51.361Z,12.02
2022-10-11T07:15:54.108Z,12.10
2022-10-11T07:19:00.771Z,12.11
2022-10-11T07:22:04.000Z,12.20
2022-10-11T07:25:07.610Z,12.40
2022-10-11T07:28:10.286Z,12.33
2022-10-11T07:31:19.529Z,12.56
2022-10-11T07:34:23.021Z,12.68
2022-10-11T07:37:26.433Z,12.66
2022-10-11T07:40:40.580Z,12.74
2022-10-11T07:43:43.774Z,12.79
2022-10-11T07:46:46.859Z,12.89
2022-10-11T07:49:49.887Z,13.04
2022-10-11T07:52:52.562Z,13.14
2022-10-11T07:55:55.590Z,13.10
2022-10-11T07:59:00.303Z,13.19
2022-10-11T08:02:03.380Z,13.38
2022-10-11T08:05:06.633Z,13.33
2022-10-11T08:08:09.491Z,13.57
2022-10-11T08:11:20.729Z,13.69
2022-10-11T08:14:23.508Z,13.90
2022-10-11T08:17:26.489Z,14.03
2022-10-11T08:20:31.212Z,14.39
2022-10-11T08:23:34.135Z,15.70
2022-10-11T08:26:36.855Z,15.04
2022-10-11T08:29:39.780Z,17.31
2022-10-11T08:32:42.640Z,18.42
2022-10-11T08:35:45.995Z,19.37
2022-10-11T08:38:48.816Z,19.49
2022-10-11T08:41:54.940Z,19.39
2022-10-11T08:45:16.693Z,18.98
2022-10-11T08:48:33.178Z,19.74
2022-10-11T08:51:40.422Z,20.92
2022-10-11T08:54:56.609Z,21.59
2022-10-11T08:57:59.508Z,21.50
2022-10-11T09:01:03.478Z,21.08
2022-10-11T09:04:06.296Z,19.32
2022-10-11T09:07:27.977Z,19.19
2022-10-11T09:10:55.271Z,18.41
2022-10-11T09:14:15.394Z,18.55
2022-10-11T09:17:52.132Z,19.18
2022-10-11T09:21:33.281Z,20.00
2022-10-11T09:25:27.398Z,20.81
2022-10-11T09:28:42.288Z,21.98
2022-10-11T09:31:49.016Z,22.70
2022-10-11T09:35:19.302Z,21.85
2022-10-11T09:38:28.093Z,21.92
2022-10-11T09:41:46.555Z,22.43
2022-10-11T09:44:51.239Z,23.72
2022-10-11T09:47:56.756Z,23.07
2022-10-11T09:51:03.307Z,23.85
2022-10-11T09:54:07.104Z,22.86
2022-10-11T09:57:31.098Z,24.17
2022-10-11T10:00:34.672Z,23.59
2022-10-11T10:03:42.868Z,24.58
2022-10-11T10:06:45.622Z,24.12
2022-10-11T10:09:49.821Z,22.78
2022-10-11T10:12:59.174Z,22.95
2022-10-11T10:16:04.406Z,24.60
2022-10-11T10:19:17.826Z,22.82
2022-10-11T10:22:27.737Z,23.05
2022-10-11T10:25:39.567Z,23.53
2022-10-11T10:29:09.681Z,23.01
2022-10-11T10:32:27.818Z,22.81
2022-10-11T10:35:57.017Z,23.10
2022-10-11T10:39:07.476Z,24.64
2022-10-11T10:42:15.173Z,23.09
2022-10-11T10:45:21.576Z,23.61
2022-10-11T10:49:01.747Z,23.46
2022-10-11T10:52:03.352Z,21.87
2022-10-11T10:55:37.013Z,21.62
2022-10-11T10:58:49.794Z,22.15
2022-10-11T11:02:21.475Z,22.45
2022-10-11T11:05:45.655Z,22.27
2022-10-11T11:09:12.845Z,21.84
2022-10-11T11:12:20.301Z,19.34
2022-10-11T11:15:38.471Z,19.12
2022-10-11T11:19:01.014Z,18.74
2022-10-11T11:22:36.367Z,18.60
2022-10-11T11:25:54.207Z,18.53
2022-10-11T11:29:18.109Z,18.39
2022-10-11T11:32:47.586Z,18.32
2022-10-11T11:35:54.213Z,18.12
2022-10-11T11:39:03.720Z,18.03
2022-10-11T11:42:14.384Z,18.00
2022-10-11T11:45:26.534Z,18.05
2022-10-11T11:48:29.597Z,17.75
2022-10-11T11:51:39.371Z,17.94
2022-10-11T11:54:49.494Z,17.80
2022-10-11T11:58:04.570Z,17.99
2022-10-11T12:01:30.927Z,17.97
2022-10-11T12:04:40.474Z,17.92
2022-10-11T12:07:56.257Z,17.79
2022-10-11T12:11:03.540Z,17.83
2022-10-11T12:14:35.130Z,17.96
2022-10-11T12:17:56.725Z,17.83
2022-10-11T12:21:15.918Z,17.87
2022-10-11T12:24:24.023Z,17.91
2022-10-11T12:27:46.104Z,17.89
2022-10-11T12:30:50.901Z,17.88
2022-10-11T12:34:15.272Z,17.78
2022-10-11T12:37:18.374Z,17.85
2022-10-11T12:40:36.642Z,18.08
2022-10-11T12:43:48.718Z,18.05
2022-10-11T12:46:51.596Z,18.20
2022-10-11T12:50:25.841Z,18.22
2022-10-11T12:54:21.600Z,18.20
2022-10-11T12:57:46.736Z,18.06
2022-10-11T13:00:52.492Z,17.89
2022-10-11T13:04:04.035Z,17.93
2022-10-11T13:07:23.586Z,17.95
2022-10-11T13:10:44.026Z,18.17
2022-10-11T13:13:58.875Z,18.31
2022-10-11T13:17:15.013Z,18.11
2022-10-11T13:20:17.991Z,18.14
2022-10-11T13:23:25.029Z,18.11
2022-10-11T13:26:29.805Z,18.08
2022-10-11T13:29:38.644Z,18.00
2022-10-11T13:32:43.101Z,17.94
2022-10-11T13:35:46.458Z,17.90
2022-10-11T13:39:00.216Z,17.90
2022-10-11T13:42:07.793Z,17.91
2022-10-11T13:45:13.317Z,17.86
2022-10-11T13:48:16.842Z,17.85
2022-10-11T13:51:32.615Z,17.85
2022-10-11T13:54:55.328Z,17.91
2022-10-11T13:57:59.147Z,17.90
2022-10-11T14:01:05.234Z,17.66
2022-10-11T14:04:10.505Z,17.75
2022-10-11T14:07:33.938Z,17.73
2022-10-11T14:10:37.720Z,17.54
2022-10-11T14:13:50.096Z,17.66
2022-10-11T14:17:13.766Z,17.65
2022-10-11T14:20:32.312Z,17.62
2022-10-11T14:23:36.045Z,17.51
2022-10-11T14:26:41.813Z,17.56
2022-10-11T14:29:55.613Z,17.48
2022-10-11T14:33:08.254Z,17.48
2022-10-11T14:36:12.518Z,17.36
2022-10-11T14:39:18.423Z,17.35
2022-10-11T14:42:21.243Z,17.30
2022-10-11T14:45:23.994Z,17.17
2022-10-11T14:48:50.465Z,16.87
2022-10-11T14:51:50.753Z,16.92
2022-10-11T14:55:02.194Z,16.77
2022-10-11T14:58:14.206Z,16.63
2022-10-11T15:01:17.877Z,16.67
2022-10-11T15:04:25.860Z,16.84
2022-10-11T15:07:30.650Z,16.84
2022-10-11T15:10:40.958Z,16.97
2022-10-11T15:13:44.189Z,16.90
2022-10-11T15:16:47.045Z,16.84
2022-10-11T15:19:51.775Z,16.93
2022-10-11T15:22:55.470Z,16.91
2022-10-11T15:25:58.388Z,17.03
2022-10-11T15:29:00.937Z,17.02
2022-10-11T15:32:03.911Z,16.98
2022-10-11T15:35:07.116Z,17.17
2022-10-11T15:38:19.997Z,17.11
2022-10-11T15:41:23.986Z,17.03
2022-10-11T15:44:26.978Z,17.07
2022-10-11T15:47:29.547Z,16.88
2022-10-11T15:50:35.308Z,16.66
2022-10-11T15:53:37.806Z,16.59
2022-10-11T15:56:40.694Z,16.41
2022-10-11T15:59:43.284Z,16.30
2022-10-11T16:02:46.162Z,16.11
2022-10-11T16:05:49.090Z,15.75
2022-10-11T16:08:51.686Z,15.70
2022-10-11T16:11:54.562Z,15.64
2022-10-11T16:14:57.152Z,15.34
2022-10-11T16:18:00.011Z,15.22
2022-10-11T16:21:06.987Z,15.09
2022-10-11T16:24:10.149Z,14.99
2022-10-11T16:27:16.536Z,14.92
2022-10-11T16:30:22.738Z,14.88
2022-10-11T16:33:25.501Z,14.88
2022-10-11T16:36:40.562Z,14.81
2022-10-11T16:39:44.306Z,14.68
2022-10-11T16:42:47.752Z,14.76
2022-10-11T16:45:57.498Z,14.70
2022-10-11T16:49:00.386Z,14.69
2022-10-11T16:52:04.052Z,14.63
2022-10-11T16:55:07.185Z,14.62
2022-10-11T16:58:10.269Z,14.65
2022-10-11T17:01:13.351Z,14.65
2022-10-11T17:04:16.117Z,14.66
2022-10-11T17:07:19.141Z,14.65
2022-10-11T17:10:39.361Z,14.54
2022-10-11T17:13:42.425Z,14.38
2022-10-11T17:16:45.577Z,14.20
2022-10-11T17:19:48.467Z,14.04
2022-10-11T17:22:51.740Z,13.86
2022-10-11T17:25:54.758Z,13.89
2022-10-11T17:28:58.989Z,13.89
2022-10-11T17:32:02.306Z,13.89
2022-10-11T17:35:05.275Z,13.84
2022-10-11T17:38:08.189Z,13.79
2022-10-11T17:41:11.612Z,13.76
2022-10-11T17:44:17.389Z,13.69
2022-10-11T17:47:19.886Z,13.60
2022-10-11T17:50:22.762Z,13.51
2022-10-11T17:53:25.446Z,13.31
2022-10-11T17:56:31.447Z,13.35
2022-10-11T17:59:37.762Z,13.23
2022-10-11T18:02:41.829Z,13.17
2022-10-11T18:05:44.959Z,13.06
2022-10-11T18:08:47.606Z,13.03
2022-10-11T18:11:51.132Z,12.91
2022-10-11T18:14:53.626Z,12.74
2022-10-11T18:17:59.716Z,12.45
2022-10-11T18:21:02.334Z,12.42
2022-10-11T18:24:16.665Z,12.29
2022-10-11T18:27:19.189Z,12.46
2022-10-11T18:30:22.415Z,12.51
2022-10-11T18:33:24.982Z,12.59
2022-10-11T18:36:30.146Z,12.57
2022-10-11T18:42:49.789Z,12.85
2022-10-11T18:45:52.376Z,12.46
2022-10-11T18:48:56.672Z,12.36
2022-10-11T18:51:59.213Z,12.19
2022-10-11T18:55:04.653Z,12.37
2022-10-11T18:58:07.617Z,12.43
2022-10-11T19:01:16.136Z,12.09
2022-10-11T19:04:19.868Z,12.03
2022-10-11T19:07:23.311Z,12.05
2022-10-11T19:10:26.043Z,11.98
2022-10-11T19:13:28.880Z,11.91
2022-10-11T19:16:31.520Z,12.08
2022-10-11T19:19:34.847Z,12.40
2022-10-11T19:22:37.431Z,12.33
2022-10-11T19:25:40.252Z,12.14
2022-10-11T19:28:43.299Z,12.34
2022-10-11T19:31:52.123Z,12.29
2022-10-11T19:34:54.624Z,12.32
2022-10-11T19:37:57.504Z,12.41
2022-10-11T19:41:01.066Z,12.57
2022-10-11T19:44:04.345Z,12.60
2022-10-11T19:47:07.089Z,12.39
2022-10-11T19:50:10.826Z,12.51
2022-10-11T19:53:13.571Z,12.60
2022-10-11T19:56:18.354Z,12.73
2022-10-11T19:59:21.541Z,12.80
2022-10-11T20:02:24.497Z,12.96
2022-10-11T20:05:27.693Z,13.00
2022-10-11T20:08:31.592Z,12.92
2022-10-11T20:11:34.430Z,12.75
2022-10-11T20:14:36.941Z,12.84
2022-10-11T20:17:48.761Z,12.85
2022-10-11T20:20:53.305Z,12.80
2022-10-11T20:24:01.419Z,12.78
2022-10-11T20:27:04.955Z,12.87
2022-10-11T20:30:08.347Z,12.88
2022-10-11T20:33:14.105Z,12.86
2022-10-11T20:36:19.531Z,12.87
2022-10-11T20:39:22.068Z,12.87
2022-10-11T20:42:28.986Z,12.82
2022-10-11T20:45:32.396Z,12.83
2022-10-11T20:48:36.652Z,12.81
2022-10-11T20:51:41.525Z,12.77
2022-10-11T20:54:44.343Z,12.72
2022-10-11T20:57:46.829Z,12.70
2022-10-11T21:00:49.857Z,12.68
2022-10-11T21:03:52.544Z,12.58
2022-10-11T21:06:55.347Z,12.71
2022-10-11T21:09:58.884Z,12.71
2022-10-11T21:13:02.238Z,12.86
2022-10-11T21:16:11.404Z,12.96
2022-10-11T21:19:15.333Z,12.96
2022-10-11T21:22:17.840Z,13.05
2022-10-11T21:25:20.991Z,13.20
2022-10-11T21:28:23.547Z,13.22
2022-10-11T21:31:31.064Z,13.31
2022-10-11T21:34:35.385Z,13.30
2022-10-11T21:37:38.229Z,13.30
2022-10-11T21:40:41.093Z,13.31
2022-10-11T21:43:44.162Z,13.33
2022-10-11T21:47:07.135Z,13.30
2022-10-11T21:50:09.993Z,13.33
2022-10-11T21:53:12.504Z,13.37
2022-10-11T21:56:16.263Z,13.37
2022-10-11T21:59:18.757Z,13.33
2022-10-11T22:02:21.600Z,13.29
2022-10-11T22:05:24.633Z,13.28
2022-10-11T22:08:27.185Z,13.24
2022-10-11T22:11:30.460Z,13.20
2022-10-11T22:14:32.968Z,13.11
2022-10-11T22:17:35.927Z,13.07
2022-10-11T22:20:38.703Z,13.06
2022-10-11T22:23:43.351Z,13.03
2022-10-11T22:26:46.013Z,12.99
2022-10-11T22:29:48.802Z,12.99
2022-10-11T22:32:51.939Z,12.97
2022-10-11T22:35:59.520Z,12.93
2022-10-11T22:39:08.041Z,12.76
2022-10-11T22:42:11.068Z,12.83
2022-10-11T22:45:13.628Z,12.69
2022-10-11T22:48:16.496Z,12.77
2022-10-11T22:51:19.144Z,12.73
2022-10-11T22:54:22.045Z,12.70
2022-10-11T22:57:24.726Z,12.71
2022-10-11T23:00:27.892Z,12.67
2022-10-11T23:03:30.627Z,12.53
2022-10-11T23:06:33.512Z,12.64
2022-10-11T23:09:36.221Z,12.68
2022-10-11T23:12:39.158Z,12.67
2022-10-11T23:15:41.749Z,12.69
2022-10-11T23:18:44.615Z,12.69
2022-10-11T23:21:47.152Z,12.73
2022-10-11T23:24:50.087Z,12.72
2022-10-11T23:27:52.953Z,12.68
2022-10-11T23:30:55.758Z,12.62
2022-10-11T23:33:58.272Z,12.55
2022-10-11T23:37:01.941Z,12.37
2022-10-11T23:40:05.289Z,12.28
2022-10-11T23:43:08.434Z,12.12
2022-10-11T23:46:10.906Z,11.97
2022-10-11T23:49:13.759Z,11.87
2022-10-11T23:52:16.257Z,11.86
2022-10-11T23:55:19.097Z,11.92
2022-10-11T23:58:22.058Z,12.13
